Airfield :
LOGIN :

Register | Disclaimer

   EN    FR    IT 

 










Legend :    VFR   Marginal VFR   IFR   Intensive IFR   Very Intensive IFR
Visi :
Ceiling :
>= 8 km
>= 3000ft
5 to 8 km
1000 to 3000 ft
1500m to 5 km
500 to 1000 ft
800 to 1500m
200 to 500 ft
< 800m
< 200 ft
Symbols :   Thunderstorms  Fog  Heavy snow  Heavy precipitations  Wind > 20 kt
SIGMETs :     Misc.  Thunderstorms  Icing  Turbulence  Mountain Waves  Volcanic Ashes






- Airport Elevation : 464 ft
- IATA code : EVX


LFOE - Evreux

CURRENT METAR :
  • 151700Z AUTO 04004KT 9999 BKN026 M00/M03 Q1030 NOSIG

EXPIRED METARs :
  • 151630Z AUTO 03005KT 9999 SCT026 M00/M04 Q1030 NOSIG
  • 151600Z AUTO 02006KT 9999 SCT026 01/M04 Q1030 NOSIG
  • 151530Z AUTO 04007KT 9999 OVC026 02/M03 Q1030 NOSIG
  • 151500Z AUTO 04008KT 9999 BKN026 02/M03 Q1029 NOSIG
  • 151430Z AUTO 03010KT 9999 BKN026 03/M03 Q1029 NOSIG

TAF TAF LFOE
Valid from the 15 at 15:00 until the 16 at 15:00 UTC


151400Z 1515/1615 02010KT 9999 BKN025
BECMG 1518/1520 VRB02KT
BECMG 1601/1603 BKN010
BECMG 1606/1608 20010KT 3000 -SN BKN004 OVC008
TEMPO 1608/1610 1400 SN OVC004
PROB30
TEMPO 1610/1613 FZRA
BECMG 1611/1613 4000 RA
BECMG 1613/1615 20015G25KT



MET'MAP, your aeronautical weather chart ! - Copyright ORBIFLY December 2007 - Disclaimer

ORBIFLY MET'MAP TEAM :

Programming & Development : Alexandra Zaïnal
Concept & original design : Baudouin d'Aumeries
Assistance for programming : Marc-Olivier Méhu
Technical & hardware support : Manuel Goepfert

Contact : metmap@orbifly.com




SOURCES & CREDITS :

   NOAA